createdAt,value
2022-10-05T00:00:46.264Z,98761.34
2022-10-05T00:03:13.777Z,98751.75
2022-10-05T00:05:41.404Z,98731.69
2022-10-05T00:08:15.487Z,98748.25
2022-10-05T00:10:43.005Z,98750.00
2022-10-05T00:13:16.375Z,98750.88
2022-10-05T00:15:44.177Z,98752.63
2022-10-05T00:18:15.158Z,98752.63
2022-10-05T00:20:42.842Z,98739.53
2022-10-05T00:23:28.537Z,98743.91
2022-10-05T00:26:11.391Z,98729.06
2022-10-05T00:28:41.319Z,98726.47
2022-10-05T00:31:17.411Z,98716.00
2022-10-05T00:33:44.536Z,98743.91
2022-10-05T00:36:11.759Z,98732.59
2022-10-05T00:38:39.139Z,98725.59
2022-10-05T00:41:06.823Z,98740.44
2022-10-05T00:43:55.854Z,98740.44
2022-10-05T00:47:15.273Z,98751.78
2022-10-05T00:50:00.529Z,98750.94
2022-10-05T00:52:33.177Z,98744.81
2022-10-05T00:55:06.171Z,98731.72
2022-10-05T00:57:49.248Z,98748.28
2022-10-05T01:00:19.237Z,98758.78
2022-10-05T01:03:22.510Z,98740.47
2022-10-05T01:06:22.707Z,98746.56
2022-10-05T01:08:55.782Z,98753.53
2022-10-05T01:11:45.842Z,98757.91
2022-10-05T01:14:15.716Z,98754.41
2022-10-05T01:16:49.510Z,98765.75
2022-10-05T01:19:42.714Z,98756.16
2022-10-05T01:22:47.228Z,98750.06
2022-10-05T01:25:47.659Z,98761.38
2022-10-05T01:28:20.732Z,98763.13
2022-10-05T01:31:04.551Z,98763.16
2022-10-05T01:33:41.483Z,98770.13
2022-10-05T01:36:34.781Z,98762.25
2022-10-05T01:39:19.592Z,98764.88
2022-10-05T01:42:26.237Z,98767.50
2022-10-05T01:45:12.548Z,98771.88
2022-10-05T01:47:47.657Z,98731.75
2022-10-05T01:50:38.233Z,98766.63
2022-10-05T01:53:23.401Z,98769.25
2022-10-05T01:56:09.636Z,98756.19
2022-10-05T01:59:16.856Z,98755.28
2022-10-05T02:01:55.666Z,98764.81
2022-10-05T02:05:02.371Z,98763.97
2022-10-05T02:07:38.983Z,98761.34
2022-10-05T02:10:22.567Z,98752.63
2022-10-05T02:12:54.998Z,98733.44
2022-10-05T02:15:33.689Z,98754.38
2022-10-05T02:18:07.445Z,98767.44
2022-10-05T02:20:37.365Z,98720.31
2022-10-05T02:23:28.092Z,98761.34
2022-10-05T02:25:58.449Z,98759.56
2022-10-05T02:28:35.269Z,98736.91
2022-10-05T02:31:15.301Z,98735.16
2022-10-05T02:33:42.469Z,98754.34
2022-10-05T02:36:24.028Z,98763.06
2022-10-05T02:39:17.195Z,98764.81
2022-10-05T02:41:58.663Z,98754.31
2022-10-05T02:44:50.089Z,98760.44
2022-10-05T02:47:30.098Z,98756.06
2022-10-05T02:50:13.035Z,98763.06
2022-10-05T02:52:56.329Z,98767.41
2022-10-05T02:55:35.419Z,98761.31
2022-10-05T02:58:16.307Z,98772.66
2022-10-05T03:00:51.272Z,98742.97
2022-10-05T03:03:22.351Z,98754.31
2022-10-05T03:06:03.787Z,98773.50
2022-10-05T03:08:41.623Z,98756.06
2022-10-05T03:11:48.448Z,98776.09
2022-10-05T03:14:26.521Z,98789.22
2022-10-05T03:17:19.253Z,98768.28
2022-10-05T03:19:47.770Z,98763.03
2022-10-05T03:22:27.015Z,98770.00
2022-10-05T03:25:06.332Z,98780.50
2022-10-05T03:27:42.210Z,98771.75
2022-10-05T03:30:32.052Z,98788.31
2022-10-05T03:33:08.103Z,98790.91
2022-10-05T03:35:46.521Z,98779.56
2022-10-05T03:38:52.818Z,98792.69
2022-10-05T03:41:39.273Z,98783.09
2022-10-05T03:44:26.560Z,98782.19
2022-10-05T03:47:12.983Z,98785.66
2022-10-05T03:50:04.542Z,98780.44
2022-10-05T03:53:08.241Z,98791.78
2022-10-05T03:56:15.766Z,98778.66
2022-10-05T03:58:53.054Z,98796.13
2022-10-05T04:01:26.016Z,98785.66
2022-10-05T04:03:59.799Z,98784.75
2022-10-05T04:06:34.124Z,98797.03
2022-10-05T04:09:23.297Z,98796.13
2022-10-05T04:12:01.149Z,98788.28
2022-10-05T04:14:37.175Z,98795.25
2022-10-05T04:17:18.344Z,98808.31
2022-10-05T04:19:53.669Z,98786.53
2022-10-05T04:22:32.275Z,98802.25
2022-10-05T04:25:06.496Z,98757.69
2022-10-05T04:27:43.047Z,98802.25
2022-10-05T04:30:18.825Z,98800.47
2022-10-05T04:32:54.298Z,98803.09
2022-10-05T04:35:46.436Z,98816.19
2022-10-05T04:38:24.938Z,98804.00
2022-10-05T04:40:59.279Z,98813.56
2022-10-05T04:43:44.825Z,98807.47
2022-10-05T04:46:32.940Z,98792.63
2022-10-05T04:49:37.087Z,98815.31
2022-10-05T04:52:25.173Z,98810.97
2022-10-05T04:55:00.740Z,98815.31
2022-10-05T04:57:38.272Z,98799.59
2022-10-05T05:00:10.176Z,98810.09
2022-10-05T05:02:41.013Z,98804.84
2022-10-05T05:05:26.340Z,98817.94
2022-10-05T05:08:16.395Z,98813.59
2022-10-05T05:11:05.264Z,98804.00
2022-10-05T05:13:47.301Z,98818.84
2022-10-05T05:16:36.345Z,98816.22
2022-10-05T05:19:33.559Z,98809.25
2022-10-05T05:22:07.217Z,98817.13
2022-10-05T05:25:04.976Z,98817.16
2022-10-05T05:27:47.763Z,98821.50
2022-10-05T05:30:23.183Z,98784.84
2022-10-05T05:33:00.173Z,98826.72
2022-10-05T05:35:48.237Z,98815.38
2022-10-05T05:38:35.457Z,98815.38
2022-10-05T05:41:08.468Z,98822.38
2022-10-05T05:43:59.081Z,98827.59
2022-10-05T05:46:58.758Z,98782.22
2022-10-05T05:49:53.927Z,98810.16
2022-10-05T05:52:41.903Z,98813.66
2022-10-05T05:55:16.208Z,98828.53
2022-10-05T05:58:06.881Z,98823.28
2022-10-05T06:01:30.745Z,98824.16
2022-10-05T06:04:19.741Z,98833.78
2022-10-05T06:06:52.224Z,98837.25
2022-10-05T06:09:41.936Z,98845.09
2022-10-05T06:12:37.811Z,98844.25
2022-10-05T06:15:33.012Z,98841.59
2022-10-05T06:18:06.661Z,98823.28
2022-10-05T06:20:43.119Z,98846.00
2022-10-05T06:23:19.465Z,98810.19
2022-10-05T06:26:10.980Z,98839.03
2022-10-05T06:28:41.499Z,98839.91
2022-10-05T06:31:19.109Z,98803.22
2022-10-05T06:34:05.654Z,98852.16
2022-10-05T06:36:49.347Z,98857.38
2022-10-05T06:39:39.146Z,98860.88
2022-10-05T06:42:40.208Z,98864.38
2022-10-05T06:45:41.156Z,98839.94
2022-10-05T06:48:27.503Z,98869.63
2022-10-05T06:51:27.130Z,98837.31
2022-10-05T06:54:37.406Z,98880.09
2022-10-05T06:57:26.997Z,98873.97
2022-10-05T07:00:01.934Z,98848.66
2022-10-05T07:03:02.905Z,98883.59
2022-10-05T07:05:33.000Z,98876.59
2022-10-05T07:08:11.960Z,98881.81
2022-10-05T07:11:14.646Z,98893.19
2022-10-05T07:14:00.558Z,98899.31
2022-10-05T07:16:56.720Z,98887.06
2022-10-05T07:20:13.224Z,98902.78
2022-10-05T07:23:03.718Z,98887.09
2022-10-05T07:25:50.896Z,98894.91
2022-10-05T07:28:39.433Z,98897.56
2022-10-05T07:31:31.777Z,98861.75
2022-10-05T07:34:23.632Z,98911.50
2022-10-05T07:37:47.987Z,98915.00
2022-10-05T07:41:02.976Z,98920.25
2022-10-05T07:44:01.698Z,98911.50
2022-10-05T07:46:52.022Z,98916.75
2022-10-05T07:49:49.064Z,98911.50
2022-10-05T07:52:35.004Z,98933.34
2022-10-05T07:55:25.442Z,98936.84
2022-10-05T07:58:05.057Z,98939.47
2022-10-05T08:00:45.029Z,98915.91
2022-10-05T08:03:40.786Z,98922.00
2022-10-05T08:06:16.335Z,98949.97
2022-10-05T08:09:21.687Z,98929.00
2022-10-05T08:11:58.331Z,98935.09
2022-10-05T08:14:41.283Z,98947.31
2022-10-05T08:17:40.961Z,98952.56
2022-10-05T08:20:40.823Z,98953.41
2022-10-05T08:23:45.437Z,98962.13
2022-10-05T08:26:36.687Z,98955.09
2022-10-05T08:29:13.819Z,98962.91
2022-10-05T08:31:46.152Z,98945.41
2022-10-05T08:34:20.352Z,98961.09
2022-10-05T08:36:57.662Z,98921.81
2022-10-05T08:39:29.958Z,98956.75
2022-10-05T08:42:11.147Z,98962.91
2022-10-05T08:44:50.009Z,98969.06
2022-10-05T08:47:27.207Z,98964.69
2022-10-05T08:50:11.072Z,98967.34
2022-10-05T08:52:53.299Z,98965.56
2022-10-05T08:55:46.562Z,98972.53
2022-10-05T08:58:43.440Z,98966.28
2022-10-05T09:01:16.822Z,98974.13
2022-10-05T09:04:17.691Z,98966.19
2022-10-05T09:06:54.898Z,98978.44
2022-10-05T09:09:44.289Z,98972.28
2022-10-05T09:12:36.226Z,98974.94
2022-10-05T09:15:35.913Z,98974.91
2022-10-05T09:18:27.275Z,98984.47
2022-10-05T09:21:12.946Z,98973.94
2022-10-05T09:23:40.675Z,98979.13
2022-10-05T09:26:26.260Z,98977.22
2022-10-05T09:29:22.732Z,98983.41
2022-10-05T09:32:11.768Z,98970.41
2022-10-05T09:35:27.784Z,99001.03
2022-10-05T09:38:19.149Z,99003.75
2022-10-05T09:41:13.947Z,99006.38
2022-10-05T09:44:17.320Z,99004.66
2022-10-05T09:47:04.312Z,99010.75
2022-10-05T09:49:37.433Z,99017.69
2022-10-05T09:52:42.125Z,98998.91
2022-10-05T09:55:47.579Z,99005.84
2022-10-05T09:58:42.356Z,98990.94
2022-10-05T10:01:33.253Z,98995.69
2022-10-05T10:04:10.316Z,99002.81
2022-10-05T10:06:54.933Z,98999.63
2022-10-05T10:09:53.143Z,99016.81
2022-10-05T10:12:48.079Z,99015.75
2022-10-05T10:15:58.246Z,99010.81
2022-10-05T10:18:55.580Z,98983.22
2022-10-05T10:21:36.077Z,99027.72
2022-10-05T10:24:18.607Z,99025.19
2022-10-05T10:27:10.588Z,99025.41
2022-10-05T10:30:10.076Z,99026.91
2022-10-05T10:32:48.738Z,99031.22
2022-10-05T10:35:52.043Z,98998.06
2022-10-05T10:38:58.519Z,99036.34
2022-10-05T10:41:47.090Z,99036.91
2022-10-05T10:44:51.781Z,99036.81
2022-10-05T10:47:37.843Z,99048.66
2022-10-05T10:50:28.457Z,99057.59
2022-10-05T10:53:13.964Z,99061.28
2022-10-05T10:56:20.081Z,99059.75
2022-10-05T10:59:06.125Z,99068.59
2022-10-05T11:01:46.212Z,99065.16
2022-10-05T11:04:32.823Z,99072.19
2022-10-05T11:07:23.563Z,99063.41
2022-10-05T11:10:18.349Z,99044.19
2022-10-05T11:13:13.495Z,99069.53
2022-10-05T11:15:54.476Z,99074.81
2022-10-05T11:18:50.145Z,99060.78
2022-10-05T11:21:17.384Z,99065.97
2022-10-05T11:24:15.885Z,99085.25
2022-10-05T11:30:37.276Z,99083.50
2022-10-05T11:33:22.673Z,99101.84
2022-10-05T11:36:22.694Z,99107.16
2022-10-05T11:39:30.667Z,99090.59
2022-10-05T11:42:22.351Z,99105.47
2022-10-05T11:45:17.730Z,99106.31
2022-10-05T11:48:15.928Z,99111.56
2022-10-05T11:50:52.873Z,99121.13
2022-10-05T11:53:24.387Z,99114.09
2022-10-05T11:56:03.857Z,99117.59
2022-10-05T11:58:37.271Z,99112.34
2022-10-05T12:01:30.165Z,99114.09
2022-10-05T12:04:29.052Z,99105.41
2022-10-05T12:07:17.849Z,99117.63
2022-10-05T12:10:18.104Z,99124.59
2022-10-05T12:13:10.385Z,99128.13
2022-10-05T12:16:03.027Z,99145.63
2022-10-05T12:18:30.741Z,99148.22
2022-10-05T12:21:16.538Z,99146.50
2022-10-05T12:24:07.894Z,99150.00
2022-10-05T12:26:47.958Z,99125.28
2022-10-05T12:29:44.031Z,99133.50
2022-10-05T12:32:41.658Z,99112.75
2022-10-05T12:35:43.513Z,99117.88
2022-10-05T12:41:20.104Z,99146.06
2022-10-05T12:43:55.281Z,99145.38
2022-10-05T12:46:22.491Z,99153.19
2022-10-05T12:49:08.342Z,99158.44
2022-10-05T12:51:45.722Z,99132.06
2022-10-05T12:54:24.132Z,99144.31
2022-10-05T12:57:07.337Z,99143.91
2022-10-05T13:00:03.290Z,99168.84
2022-10-05T13:02:47.153Z,99156.75
2022-10-05T13:05:30.868Z,99154.16
2022-10-05T13:08:07.761Z,99158.47
2022-10-05T13:10:41.663Z,99165.41
2022-10-05T13:13:27.717Z,99158.34
2022-10-05T13:15:55.487Z,99154.75
2022-10-05T13:18:52.603Z,99132.81
2022-10-05T13:21:53.143Z,99160.56
2022-10-05T13:24:31.362Z,99151.47
2022-10-05T13:27:09.147Z,99145.97
2022-10-05T13:30:01.297Z,99149.94
2022-10-05T13:32:45.171Z,99151.25
2022-10-05T13:35:18.478Z,99165.59
2022-10-05T13:38:21.494Z,99158.78
2022-10-05T13:41:04.809Z,99165.22
2022-10-05T13:43:47.498Z,99168.13
2022-10-05T13:46:28.701Z,99155.31
2022-10-05T13:49:30.510Z,99173.91
2022-10-05T13:52:18.269Z,99182.00
2022-10-05T13:54:48.697Z,99186.50
2022-10-05T13:57:45.671Z,99191.91
2022-10-05T14:00:25.607Z,99161.38
2022-10-05T14:02:57.492Z,99199.00
2022-10-05T14:05:28.391Z,99191.13
2022-10-05T14:07:58.895Z,99198.91
2022-10-05T14:10:40.131Z,99192.72
2022-10-05T14:13:29.880Z,99197.94
2022-10-05T14:16:19.307Z,99204.91
2022-10-05T14:19:14.033Z,99213.69
2022-10-05T14:22:01.757Z,99210.28
2022-10-05T14:24:50.843Z,99217.28
2022-10-05T14:27:19.118Z,99224.28
2022-10-05T14:29:57.504Z,99219.06
2022-10-05T14:32:27.937Z,99218.25
2022-10-05T14:34:55.886Z,99221.81
2022-10-05T14:37:26.417Z,99232.31
2022-10-05T14:39:57.829Z,99234.13
2022-10-05T14:42:30.441Z,99236.75
2022-10-05T14:45:16.491Z,99236.72
2022-10-05T14:47:53.634Z,99238.47
2022-10-05T14:50:26.493Z,99218.31
2022-10-05T14:53:12.585Z,99240.16
2022-10-05T14:56:07.654Z,99251.53
2022-10-05T14:58:54.704Z,99247.16
2022-10-05T15:01:35.744Z,99247.13
2022-10-05T15:04:22.918Z,99242.75
2022-10-05T15:07:21.676Z,99260.22
2022-10-05T15:09:54.962Z,99249.69
2022-10-05T15:12:39.050Z,99261.03
2022-10-05T15:15:29.862Z,99254.88
2022-10-05T15:18:42.461Z,99267.13
2022-10-05T15:21:33.791Z,99267.97
2022-10-05T15:24:20.826Z,99274.94
2022-10-05T15:26:52.241Z,99273.16
2022-10-05T15:29:47.425Z,99263.56
2022-10-05T15:32:43.043Z,99274.91
2022-10-05T15:35:37.181Z,99283.66
2022-10-05T15:38:21.926Z,99285.44
2022-10-05T15:40:59.718Z,99286.28
2022-10-05T15:43:41.962Z,99275.75
2022-10-05T15:46:25.336Z,99288.00
2022-10-05T15:49:12.918Z,99291.50
2022-10-05T15:51:56.982Z,99292.38
2022-10-05T15:54:56.969Z,99297.59
2022-10-05T15:57:52.888Z,99294.97
2022-10-05T16:00:24.252Z,99289.69
2022-10-05T16:03:00.131Z,99294.06
2022-10-05T16:05:58.366Z,99286.22
2022-10-05T16:09:04.504Z,99297.53
2022-10-05T16:12:05.710Z,99304.47
2022-10-05T16:14:55.755Z,99292.25
2022-10-05T16:17:52.828Z,99308.88
2022-10-05T16:20:34.941Z,99306.25
2022-10-05T16:23:07.585Z,99311.50
2022-10-05T16:26:01.851Z,99313.22
2022-10-05T16:29:13.731Z,99305.28
2022-10-05T16:31:56.760Z,99307.03
2022-10-05T16:34:55.058Z,99321.00
2022-10-05T16:37:42.607Z,99323.59
2022-10-05T16:40:32.192Z,99317.47
2022-10-05T16:43:26.354Z,99306.94
2022-10-05T16:46:48.754Z,99310.44
2022-10-05T16:49:50.100Z,99287.63
2022-10-05T16:52:23.134Z,99320.88
2022-10-05T16:54:57.375Z,99308.69
2022-10-05T16:57:39.814Z,99281.50
2022-10-05T17:00:25.859Z,99324.44
2022-10-05T17:03:35.364Z,99309.50
2022-10-05T17:06:44.805Z,99314.78
2022-10-05T17:09:35.454Z,99308.56
2022-10-05T17:12:17.544Z,99331.38
2022-10-05T17:15:03.962Z,99332.31
2022-10-05T17:17:42.604Z,99333.13
2022-10-05T17:20:40.237Z,99340.09
2022-10-05T17:23:31.877Z,99340.03
2022-10-05T17:26:05.551Z,99343.50
2022-10-05T17:28:40.842Z,99339.06
2022-10-05T17:31:26.457Z,99293.41
2022-10-05T17:34:00.502Z,99340.78
2022-10-05T17:36:50.276Z,99350.31
2022-10-05T17:39:23.029Z,99359.91
2022-10-05T17:41:51.157Z,99344.13
2022-10-05T17:44:25.451Z,99352.91
2022-10-05T17:47:07.530Z,99361.66
2022-10-05T17:49:38.998Z,99359.94
2022-10-05T17:52:41.543Z,99354.72
2022-10-05T17:55:27.855Z,99322.16
2022-10-05T17:58:00.363Z,99359.94
2022-10-05T18:00:36.176Z,99354.72
2022-10-05T18:03:44.148Z,99374.88
2022-10-05T18:06:33.316Z,99373.16
2022-10-05T18:09:34.092Z,99357.38
2022-10-05T18:12:17.135Z,99371.44
2022-10-05T18:14:56.546Z,99363.56
2022-10-05T18:17:48.577Z,99383.66
2022-10-05T18:20:30.731Z,99381.94
2022-10-05T18:23:10.197Z,99387.16
2022-10-05T18:25:39.846Z,99372.31
2022-10-05T18:28:14.401Z,99362.59
2022-10-05T18:31:10.451Z,99375.81
2022-10-05T18:33:53.744Z,99358.19
2022-10-05T18:36:45.248Z,99384.44
2022-10-05T18:39:31.432Z,99380.84
2022-10-05T18:42:25.446Z,99399.16
2022-10-05T18:45:03.467Z,99379.78
2022-10-05T18:47:51.305Z,99399.91
2022-10-05T18:50:26.956Z,99402.47
2022-10-05T18:53:17.837Z,99398.09
2022-10-05T18:55:59.914Z,99377.06
2022-10-05T18:58:54.577Z,99399.75
2022-10-05T19:01:50.469Z,99392.72
2022-10-05T19:04:23.122Z,99387.44
2022-10-05T19:07:09.961Z,99397.78
2022-10-05T19:09:48.201Z,99395.06
2022-10-05T19:12:41.502Z,99373.06
2022-10-05T19:15:15.714Z,99375.56
2022-10-05T19:17:49.450Z,99394.69
2022-10-05T19:20:30.574Z,99398.97
2022-10-05T19:23:09.073Z,99398.00
2022-10-05T19:25:38.873Z,99390.97
2022-10-05T19:28:34.277Z,99396.16
2022-10-05T19:31:14.318Z,99403.94
2022-10-05T19:33:48.224Z,99399.53
2022-10-05T19:36:19.828Z,99403.88
2022-10-05T19:39:12.375Z,99379.38
2022-10-05T19:41:58.494Z,99400.34
2022-10-05T19:44:44.754Z,99398.56
2022-10-05T19:47:45.791Z,99407.25
2022-10-05T19:50:23.242Z,99397.50
2022-10-05T19:52:59.053Z,99344.00
2022-10-05T19:55:35.044Z,99405.50
2022-10-05T19:58:02.740Z,99408.19
2022-10-05T20:00:33.513Z,99395.09
2022-10-05T20:03:17.494Z,99407.44
2022-10-05T20:05:45.072Z,99396.88
2022-10-05T20:08:19.290Z,99406.63
2022-10-05T20:11:22.869Z,99404.91
2022-10-05T20:13:53.830Z,99413.72
2022-10-05T20:16:46.385Z,99405.97
2022-10-05T20:19:50.418Z,99398.19
2022-10-05T20:22:24.987Z,99405.25
2022-10-05T20:24:54.278Z,99395.72
2022-10-05T20:27:42.249Z,99415.81
2022-10-05T20:30:12.482Z,99397.53
2022-10-05T20:32:39.635Z,99389.59
2022-10-05T20:35:09.598Z,99416.88
2022-10-05T20:37:37.010Z,99413.38
2022-10-05T20:40:06.002Z,99402.91
2022-10-05T20:42:33.110Z,99402.94
2022-10-05T20:45:00.124Z,99402.91
2022-10-05T20:47:27.268Z,99411.75
2022-10-05T20:49:54.742Z,99415.28
2022-10-05T20:52:23.469Z,99402.97
2022-10-05T20:54:53.969Z,99418.84
2022-10-05T20:57:21.398Z,99417.94
2022-10-05T20:59:48.840Z,99412.72
2022-10-05T21:02:15.993Z,99395.22
2022-10-05T21:04:47.676Z,99408.44
2022-10-05T21:07:17.207Z,99420.69
2022-10-05T21:09:44.978Z,99418.91
2022-10-05T21:12:13.200Z,99390.81
2022-10-05T21:14:40.756Z,99395.25
2022-10-05T21:17:07.807Z,99404.06
2022-10-05T21:19:44.000Z,99421.56
2022-10-05T21:22:11.614Z,99386.53
2022-10-05T21:24:41.067Z,99406.75
2022-10-05T21:27:08.899Z,99409.34
2022-10-05T21:29:37.253Z,99401.38
2022-10-05T21:32:08.784Z,99424.09
2022-10-05T21:34:35.803Z,99421.47
2022-10-05T21:37:03.054Z,99435.41
2022-10-05T21:39:30.249Z,99405.66
2022-10-05T21:41:58.031Z,99426.75
2022-10-05T21:44:25.553Z,99415.41
2022-10-05T21:46:52.789Z,99410.16
2022-10-05T21:49:20.070Z,99410.97
2022-10-05T21:51:47.656Z,99411.88
2022-10-05T21:54:19.364Z,99432.94
2022-10-05T21:56:50.999Z,99439.09
2022-10-05T21:59:22.347Z,99445.22
2022-10-05T22:01:49.353Z,99443.47
2022-10-05T22:04:16.439Z,99439.97
2022-10-05T22:06:43.774Z,99436.50
2022-10-05T22:09:11.162Z,99445.28
2022-10-05T22:11:38.438Z,99441.78
2022-10-05T22:14:05.608Z,99441.81
2022-10-05T22:16:38.719Z,99450.69
2022-10-05T22:19:10.894Z,99445.44
2022-10-05T22:21:41.909Z,99446.25
2022-10-05T22:24:11.832Z,99454.13
2022-10-05T22:26:41.334Z,99438.28
2022-10-05T22:29:09.788Z,99453.22
2022-10-05T22:31:37.864Z,99460.22
2022-10-05T22:34:05.020Z,99465.47
2022-10-05T22:36:34.778Z,99435.59
2022-10-05T22:39:02.109Z,99453.94
2022-10-05T22:41:30.236Z,99449.63
2022-10-05T22:43:57.393Z,99468.88
2022-10-05T22:46:24.744Z,99464.47
2022-10-05T22:48:51.810Z,99438.16
2022-10-05T22:51:19.256Z,99464.53
2022-10-05T22:53:46.418Z,99439.09
2022-10-05T22:56:14.501Z,99447.06
2022-10-05T22:58:43.289Z,99457.59
2022-10-05T23:01:16.366Z,99444.38
2022-10-05T23:03:44.641Z,99463.75
2022-10-05T23:06:14.817Z,99458.50
2022-10-05T23:08:42.808Z,99454.00
2022-10-05T23:11:13.820Z,99447.81
2022-10-05T23:13:42.283Z,99436.38
2022-10-05T23:16:17.897Z,99462.00
2022-10-05T23:18:47.422Z,99429.50
2022-10-05T23:21:14.855Z,99472.44
2022-10-05T23:23:45.658Z,99455.88
2022-10-05T23:26:13.426Z,99440.03
2022-10-05T23:28:46.433Z,99447.97
2022-10-05T23:31:19.373Z,99447.78
2022-10-05T23:33:47.258Z,99471.56
2022-10-05T23:36:21.220Z,99461.09
2022-10-05T23:38:48.510Z,99445.25
2022-10-05T23:41:17.192Z,99462.84
2022-10-05T23:43:44.388Z,99444.38
2022-10-05T23:46:12.821Z,99438.22
2022-10-05T23:48:41.157Z,99462.00
2022-10-05T23:51:11.002Z,99466.34
2022-10-05T23:53:38.170Z,99453.19
2022-10-05T23:56:05.922Z,99464.59
2022-10-05T23:58:33.018Z,99454.00
